createdAt,value
2022-11-22T00:00:27.789Z,5.30
2022-11-22T00:02:54.965Z,5.80
2022-11-22T00:05:21.808Z,5.00
2022-11-22T00:07:48.660Z,4.90
2022-11-22T00:10:16.279Z,4.90
2022-11-22T00:12:43.610Z,5.40
2022-11-22T00:15:11.713Z,5.00
2022-11-22T00:17:38.941Z,5.00
2022-11-22T00:20:08.176Z,4.90
2022-11-22T00:22:38.498Z,4.90
2022-11-22T00:25:08.617Z,4.90
2022-11-22T00:27:35.893Z,4.70
2022-11-22T00:30:02.788Z,4.60
2022-11-22T00:32:29.526Z,4.60
2022-11-22T00:34:56.720Z,4.60
2022-11-22T00:37:23.881Z,5.40
2022-11-22T00:39:50.667Z,5.10
2022-11-22T00:42:18.354Z,5.10
2022-11-22T00:44:45.109Z,4.40
2022-11-22T00:47:11.855Z,4.20
2022-11-22T00:49:39.108Z,4.20
2022-11-22T00:52:05.993Z,4.50
2022-11-22T00:54:33.217Z,4.30
2022-11-22T00:57:00.030Z,4.50
2022-11-22T00:59:27.414Z,4.40
2022-11-22T01:01:54.352Z,4.50
2022-11-22T01:04:21.225Z,4.50
2022-11-22T01:06:48.049Z,4.50
2022-11-22T01:09:22.346Z,5.70
2022-11-22T01:11:49.924Z,4.60
2022-11-22T01:14:18.428Z,5.20
2022-11-22T01:16:45.738Z,4.40
2022-11-22T01:19:12.666Z,4.70
2022-11-22T01:21:40.092Z,4.70
2022-11-22T01:24:08.232Z,4.20
2022-11-22T01:26:35.608Z,4.40
2022-11-22T01:29:02.523Z,4.10
2022-11-22T01:31:30.204Z,5.20
2022-11-22T01:33:58.893Z,4.30
2022-11-22T01:36:26.514Z,4.10
2022-11-22T01:38:53.313Z,4.00
2022-11-22T01:41:20.406Z,4.20
2022-11-22T01:43:47.145Z,4.00
2022-11-22T01:46:37.377Z,4.10
2022-11-22T01:49:40.646Z,4.10
2022-11-22T01:52:12.442Z,4.10
2022-11-22T01:54:42.045Z,4.20
2022-11-22T01:57:14.492Z,4.40
2022-11-22T01:59:48.956Z,4.70
2022-11-22T02:02:15.869Z,4.20
2022-11-22T02:04:43.782Z,4.40
2022-11-22T02:07:15.552Z,4.30
2022-11-22T02:09:43.542Z,4.40
2022-11-22T02:12:12.023Z,4.80
2022-11-22T02:14:40.651Z,4.70
2022-11-22T02:17:07.850Z,4.40
2022-11-22T02:19:37.977Z,4.50
2022-11-22T02:22:20.562Z,5.90
2022-11-22T02:24:56.860Z,4.60
2022-11-22T02:27:24.046Z,4.50
2022-11-22T02:29:50.938Z,4.50
2022-11-22T02:32:18.195Z,4.40
2022-11-22T02:34:50.384Z,4.40
2022-11-22T02:37:27.472Z,4.20
2022-11-22T02:40:01.116Z,4.00
2022-11-22T02:42:30.903Z,4.10
2022-11-22T02:44:58.129Z,4.10
2022-11-22T02:47:24.870Z,4.10
2022-11-22T02:49:53.634Z,4.30
2022-11-22T02:52:20.977Z,4.10
2022-11-22T02:54:47.820Z,4.20
2022-11-22T02:57:14.725Z,4.20
2022-11-22T02:59:41.541Z,5.30
2022-11-22T03:02:08.337Z,4.20
2022-11-22T03:04:35.493Z,4.50
2022-11-22T03:07:02.967Z,5.00
2022-11-22T03:09:30.560Z,4.40
2022-11-22T03:11:58.147Z,4.20
2022-11-22T03:14:25.001Z,4.30
2022-11-22T03:16:51.994Z,4.40
2022-11-22T03:19:19.479Z,4.50
2022-11-22T03:21:46.743Z,5.00
2022-11-22T03:24:13.907Z,4.20
2022-11-22T03:26:40.963Z,4.10
2022-11-22T03:29:08.116Z,4.30
2022-11-22T03:31:36.190Z,4.30
2022-11-22T03:34:03.357Z,4.40
2022-11-22T03:36:30.150Z,4.30
2022-11-22T03:38:56.919Z,4.40
2022-11-22T03:41:24.108Z,4.30
2022-11-22T03:43:51.244Z,4.30
2022-11-22T03:46:22.228Z,6.30
2022-11-22T03:48:49.369Z,4.50
2022-11-22T03:51:16.164Z,4.70
2022-11-22T03:53:43.009Z,4.80
2022-11-22T03:56:10.328Z,4.30
2022-11-22T03:58:37.174Z,5.60
2022-11-22T04:01:04.029Z,5.00
2022-11-22T04:03:31.461Z,4.80
2022-11-22T04:05:58.361Z,5.20
2022-11-22T04:08:25.870Z,5.10
2022-11-22T04:10:53.242Z,4.10
2022-11-22T04:13:20.629Z,4.30
2022-11-22T04:15:47.439Z,4.20
2022-11-22T04:18:14.959Z,4.30
2022-11-22T04:21:17.416Z,4.50
2022-11-22T04:23:44.216Z,4.40
2022-11-22T04:26:11.435Z,4.20
2022-11-22T04:29:08.130Z,4.40
2022-11-22T04:31:43.807Z,4.30
2022-11-22T04:34:10.633Z,4.00
2022-11-22T04:36:37.383Z,4.20
2022-11-22T04:39:04.168Z,4.30
2022-11-22T04:41:31.392Z,4.20
2022-11-22T04:44:17.285Z,4.10
2022-11-22T04:46:44.164Z,4.40
2022-11-22T04:49:11.376Z,4.10
2022-11-22T04:51:56.656Z,4.00
2022-11-22T04:54:23.611Z,4.30
2022-11-22T04:56:50.398Z,4.30
2022-11-22T04:59:17.175Z,4.50
2022-11-22T05:01:44.361Z,4.40
2022-11-22T05:04:11.231Z,4.20
2022-11-22T05:06:38.417Z,4.30
2022-11-22T05:09:05.600Z,4.80
2022-11-22T05:11:33.055Z,5.70
2022-11-22T05:14:00.340Z,4.30
2022-11-22T05:16:27.083Z,4.30
2022-11-22T05:18:59.692Z,4.40
2022-11-22T05:21:28.462Z,4.40
2022-11-22T05:23:56.505Z,5.50
2022-11-22T05:26:42.074Z,4.20
2022-11-22T05:29:10.509Z,4.30
2022-11-22T05:31:40.342Z,4.40
2022-11-22T05:34:07.148Z,4.50
2022-11-22T05:36:35.232Z,4.50
2022-11-22T05:39:03.020Z,4.50
2022-11-22T05:41:29.792Z,4.50
2022-11-22T05:43:57.819Z,5.30
2022-11-22T05:46:27.177Z,4.70
2022-11-22T05:48:56.192Z,4.60
2022-11-22T05:51:32.176Z,4.50
2022-11-22T05:54:01.211Z,4.50
2022-11-22T05:56:28.537Z,4.60
2022-11-22T05:58:55.334Z,5.00
2022-11-22T06:01:23.940Z,4.80
2022-11-22T06:03:51.313Z,4.70
2022-11-22T06:06:18.638Z,4.70
2022-11-22T06:08:48.527Z,4.70
2022-11-22T06:11:24.398Z,4.80
2022-11-22T06:13:59.784Z,5.00
2022-11-22T06:16:27.543Z,5.00
2022-11-22T06:18:55.265Z,4.90
2022-11-22T06:21:24.711Z,4.90
2022-11-22T06:23:55.479Z,5.40
2022-11-22T06:26:24.043Z,4.90
2022-11-22T06:28:51.729Z,4.90
2022-11-22T06:31:24.815Z,6.60
2022-11-22T06:33:55.692Z,4.80
2022-11-22T06:36:34.280Z,4.90
2022-11-22T06:39:03.602Z,4.90
2022-11-22T06:41:34.151Z,4.90
2022-11-22T06:44:07.906Z,4.90
2022-11-22T06:46:36.163Z,4.90
2022-11-22T06:49:03.815Z,5.00
2022-11-22T06:51:32.103Z,5.10
2022-11-22T06:53:59.760Z,5.20
2022-11-22T06:56:32.674Z,6.80
2022-11-22T06:59:03.979Z,6.00
2022-11-22T07:01:31.722Z,5.10
2022-11-22T07:03:59.505Z,5.10
2022-11-22T07:06:35.605Z,5.00
2022-11-22T07:09:04.671Z,5.00
2022-11-22T07:11:32.344Z,5.10
2022-11-22T07:14:07.078Z,5.10
2022-11-22T07:16:36.288Z,5.00
2022-11-22T07:19:03.073Z,5.20
2022-11-22T07:21:29.868Z,5.30
2022-11-22T07:23:56.725Z,5.30
2022-11-22T07:26:26.028Z,5.30
2022-11-22T07:28:53.374Z,5.50
2022-11-22T07:31:20.354Z,5.40
2022-11-22T07:33:47.738Z,5.50
2022-11-22T07:36:20.036Z,5.50
2022-11-22T07:38:48.459Z,5.40
2022-11-22T07:41:17.510Z,5.40
2022-11-22T07:43:44.411Z,5.30
2022-11-22T07:46:31.316Z,5.30
2022-11-22T07:48:59.473Z,5.50
2022-11-22T07:51:26.807Z,5.50
2022-11-22T07:53:55.645Z,5.60
2022-11-22T07:56:22.504Z,5.60
2022-11-22T07:58:49.357Z,5.90
2022-11-22T08:01:18.283Z,5.80
2022-11-22T08:03:46.125Z,5.70
2022-11-22T08:06:13.818Z,5.80
2022-11-22T08:08:40.847Z,5.70
2022-11-22T08:11:08.792Z,5.90
2022-11-22T08:13:35.847Z,5.70
2022-11-22T08:16:09.395Z,5.60
2022-11-22T08:18:37.155Z,5.80
2022-11-22T08:21:09.552Z,5.80
2022-11-22T08:23:37.077Z,5.80
2022-11-22T08:26:05.398Z,5.90
2022-11-22T08:28:32.872Z,5.80
2022-11-22T08:31:05.791Z,5.80
2022-11-22T08:33:33.033Z,5.70
2022-11-22T08:36:00.210Z,5.70
2022-11-22T08:38:27.470Z,5.80
2022-11-22T08:40:54.911Z,5.70
2022-11-22T08:43:21.859Z,5.80
2022-11-22T08:45:57.402Z,5.60
2022-11-22T08:48:28.917Z,5.50
2022-11-22T08:50:58.464Z,5.50
2022-11-22T08:53:26.279Z,5.80
2022-11-22T08:55:54.633Z,5.50
2022-11-22T08:58:22.177Z,5.50
2022-11-22T09:00:48.899Z,5.60
2022-11-22T09:03:15.841Z,5.70
2022-11-22T09:08:31.429Z,5.70
2022-11-22T09:11:04.721Z,5.80
2022-11-22T09:13:31.991Z,5.90
2022-11-22T09:16:24.207Z,6.00
2022-11-22T09:18:52.046Z,6.10
2022-11-22T09:21:19.672Z,6.10
2022-11-22T09:23:48.989Z,6.20
2022-11-22T09:26:18.635Z,6.40
2022-11-22T09:28:46.413Z,6.70
2022-11-22T09:31:19.488Z,6.70
2022-11-22T09:33:49.300Z,6.60
2022-11-22T09:36:18.533Z,6.70
2022-11-22T09:38:45.656Z,6.80
2022-11-22T09:41:43.211Z,7.00
2022-11-22T09:44:31.688Z,7.20
2022-11-22T09:47:21.946Z,7.50
2022-11-22T09:50:18.804Z,7.70
2022-11-22T09:52:57.348Z,7.90
2022-11-22T09:55:34.890Z,7.70
2022-11-22T09:58:33.504Z,7.80
2022-11-22T10:01:14.547Z,7.90
2022-11-22T10:03:51.801Z,8.00
2022-11-22T10:06:32.021Z,8.10
2022-11-22T10:09:04.810Z,8.10
2022-11-22T10:11:45.536Z,8.30
2022-11-22T10:14:31.906Z,8.20
2022-11-22T10:17:20.235Z,8.20
2022-11-22T10:20:13.790Z,8.30
2022-11-22T10:22:40.639Z,8.30
2022-11-22T10:25:40.341Z,8.30
2022-11-22T10:28:17.648Z,8.40
2022-11-22T10:31:00.442Z,8.60
2022-11-22T10:33:41.315Z,8.70
2022-11-22T10:36:29.107Z,8.80
2022-11-22T10:39:08.557Z,8.90
2022-11-22T10:42:03.738Z,9.00
2022-11-22T10:44:56.192Z,9.10
2022-11-22T10:47:38.022Z,9.20
2022-11-22T10:50:23.742Z,9.10
2022-11-22T10:53:09.307Z,9.00
2022-11-22T10:56:00.113Z,9.20
2022-11-22T10:58:33.412Z,9.10
2022-11-22T11:01:14.909Z,9.20
2022-11-22T11:03:45.810Z,9.30
2022-11-22T11:06:26.771Z,9.50
2022-11-22T11:12:22.354Z,9.50
2022-11-22T11:14:55.343Z,9.50
2022-11-22T11:17:31.422Z,9.40
2022-11-22T11:20:01.944Z,9.50
2022-11-22T11:23:06.415Z,9.50
2022-11-22T11:25:31.799Z,9.50
2022-11-22T11:28:04.066Z,9.60
2022-11-22T11:30:55.220Z,9.90
2022-11-22T11:33:29.799Z,10.40
2022-11-22T11:36:06.203Z,10.70
2022-11-22T11:38:40.623Z,11.00
2022-11-22T11:41:31.386Z,11.20
2022-11-22T11:44:00.356Z,11.30
2022-11-22T11:46:29.744Z,11.60
2022-11-22T11:49:09.855Z,11.80
2022-11-22T11:51:49.569Z,11.90
2022-11-22T11:54:35.181Z,12.00
2022-11-22T11:57:05.330Z,12.50
2022-11-22T11:59:44.216Z,13.00
2022-11-22T12:02:28.202Z,13.40
2022-11-22T12:05:23.966Z,13.40
2022-11-22T12:07:50.777Z,13.10
2022-11-22T12:10:31.985Z,12.80
2022-11-22T12:13:08.165Z,12.70
2022-11-22T12:15:56.704Z,12.80
2022-11-22T12:18:35.821Z,12.60
2022-11-22T12:21:21.143Z,12.70
2022-11-22T12:24:41.327Z,12.80
2022-11-22T12:26:59.539Z,13.00
2022-11-22T12:29:26.771Z,13.30
2022-11-22T12:32:07.191Z,13.50
2022-11-22T12:34:40.622Z,13.70
2022-11-22T12:37:17.374Z,14.30
2022-11-22T12:39:49.228Z,15.00
2022-11-22T12:42:54.660Z,15.80
2022-11-22T12:45:36.715Z,16.30
2022-11-22T12:48:21.074Z,17.20
2022-11-22T12:50:53.458Z,17.40
2022-11-22T12:53:28.340Z,17.30
2022-11-22T12:56:09.967Z,16.90
2022-11-22T12:59:10.802Z,16.30
2022-11-22T13:01:47.258Z,16.00
2022-11-22T13:04:30.372Z,15.80
2022-11-22T13:07:06.908Z,15.80
2022-11-22T13:09:38.352Z,15.70
2022-11-22T13:12:17.778Z,15.40
2022-11-22T13:14:54.060Z,14.80
2022-11-22T13:17:23.666Z,14.40
2022-11-22T13:19:50.874Z,14.20
2022-11-22T13:22:42.449Z,13.80
2022-11-22T13:25:32.007Z,13.30
2022-11-22T13:28:01.469Z,12.90
2022-11-22T13:30:30.207Z,12.70
2022-11-22T13:32:59.478Z,12.60
2022-11-22T13:35:37.169Z,12.40
2022-11-22T13:38:12.945Z,12.40
2022-11-22T13:40:44.055Z,13.40
2022-11-22T13:43:17.975Z,14.40
2022-11-22T13:45:49.219Z,15.20
2022-11-22T13:48:39.689Z,15.40
2022-11-22T13:51:09.005Z,15.10
2022-11-22T13:53:40.335Z,15.60
2022-11-22T13:56:16.405Z,15.70
2022-11-22T13:58:55.694Z,15.20
2022-11-22T14:01:52.214Z,14.70
2022-11-22T14:04:21.072Z,14.00
2022-11-22T14:06:54.094Z,13.60
2022-11-22T14:09:42.253Z,13.10
2022-11-22T14:12:24.753Z,12.80
2022-11-22T14:15:03.703Z,12.40
2022-11-22T14:17:41.539Z,12.00
2022-11-22T14:20:08.850Z,11.70
2022-11-22T14:23:37.566Z,11.40
2022-11-22T14:26:41.622Z,11.40
2022-11-22T14:29:41.161Z,11.20
2022-11-22T14:32:14.826Z,10.90
2022-11-22T14:35:03.110Z,10.90
2022-11-22T14:37:29.938Z,10.80
2022-11-22T14:40:08.667Z,10.70
2022-11-22T14:42:43.533Z,10.60
2022-11-22T14:45:10.297Z,10.50
2022-11-22T14:47:53.305Z,10.40
2022-11-22T14:50:32.705Z,10.40
2022-11-22T14:53:30.993Z,10.30
2022-11-22T14:56:05.306Z,10.10
2022-11-22T14:58:38.492Z,10.00
2022-11-22T15:01:40.250Z,10.00
2022-11-22T15:09:11.859Z,9.80
2022-11-22T15:09:12.522Z,10.00
2022-11-22T15:10:49.648Z,9.70
2022-11-22T15:13:37.529Z,9.70
2022-11-22T15:57:34.920Z,9.50
2022-11-22T16:00:02.408Z,9.40
2022-11-22T16:02:32.200Z,9.40
2022-11-22T16:06:10.537Z,9.30
2022-11-22T16:07:53.209Z,9.30
2022-11-22T16:10:37.219Z,9.40
2022-11-22T16:13:14.598Z,9.40
2022-11-22T16:15:41.455Z,9.40
2022-11-22T16:18:14.986Z,9.40
2022-11-22T16:20:58.529Z,9.40
2022-11-22T16:23:27.341Z,9.30
2022-11-22T16:26:00.163Z,9.30
2022-11-22T16:28:31.330Z,9.30
2022-11-22T16:31:01.374Z,9.40
2022-11-22T16:33:28.357Z,9.40
2022-11-22T16:35:57.948Z,9.30
2022-11-22T16:38:26.100Z,9.20
2022-11-22T16:40:56.045Z,9.30
2022-11-22T16:43:24.511Z,9.30
2022-11-22T16:45:51.661Z,9.40
2022-11-22T16:48:31.715Z,9.40
2022-11-22T16:51:20.231Z,9.40
2022-11-22T16:53:48.952Z,9.50
2022-11-22T16:56:27.902Z,9.40
2022-11-22T16:58:56.974Z,9.40
2022-11-22T17:01:26.693Z,9.40
2022-11-22T17:03:56.681Z,9.50
2022-11-22T17:06:26.303Z,9.50
2022-11-22T17:08:55.664Z,9.60
2022-11-22T17:11:32.346Z,9.60
2022-11-22T17:14:00.453Z,9.60
2022-11-22T17:16:27.791Z,9.50
2022-11-22T17:18:54.661Z,9.40
2022-11-22T17:21:26.510Z,9.30
2022-11-22T17:23:59.702Z,9.20
2022-11-22T17:26:27.438Z,9.20
2022-11-22T17:28:54.381Z,9.20
2022-11-22T17:31:23.105Z,9.20
2022-11-22T17:33:51.929Z,9.10
2022-11-22T17:36:21.035Z,9.00
2022-11-22T17:38:48.433Z,9.00
2022-11-22T17:41:15.395Z,9.00
2022-11-22T17:43:42.189Z,8.90
2022-11-22T17:46:08.988Z,8.90
2022-11-22T17:48:36.045Z,8.70
2022-11-22T17:51:11.441Z,8.70
2022-11-22T17:53:39.239Z,8.70
2022-11-22T17:56:11.104Z,8.70
2022-11-22T17:58:40.344Z,8.50
2022-11-22T18:01:14.463Z,8.40
2022-11-22T18:03:42.830Z,8.40
2022-11-22T18:06:11.456Z,8.40
2022-11-22T18:08:42.456Z,8.30
2022-11-22T18:11:12.074Z,8.40
2022-11-22T18:13:40.003Z,8.40
2022-11-22T18:16:12.148Z,8.40
2022-11-22T18:21:29.524Z,8.50
2022-11-22T18:23:58.457Z,8.60
2022-11-22T18:26:41.880Z,8.70
2022-11-22T18:31:57.230Z,8.60
2022-11-22T18:34:24.563Z,8.70
2022-11-22T18:37:07.231Z,8.80
2022-11-22T18:39:39.645Z,8.80
2022-11-22T18:42:10.371Z,8.80
2022-11-22T18:44:37.105Z,8.80
2022-11-22T18:47:04.207Z,8.70
2022-11-22T18:49:32.023Z,8.80
2022-11-22T18:51:59.770Z,8.80
2022-11-22T18:54:26.926Z,8.80
2022-11-22T18:56:54.089Z,8.80
2022-11-22T18:59:20.911Z,8.90
2022-11-22T19:01:47.671Z,8.90
2022-11-22T19:04:15.524Z,8.90
2022-11-22T19:06:43.463Z,8.90
2022-11-22T19:09:11.184Z,9.00
2022-11-22T19:11:38.884Z,9.00
2022-11-22T19:14:06.087Z,9.00
2022-11-22T19:16:32.953Z,9.10
2022-11-22T19:18:59.715Z,9.10
2022-11-22T19:21:28.335Z,9.20
2022-11-22T19:23:56.571Z,9.10
2022-11-22T19:26:25.415Z,9.10
2022-11-22T19:28:57.451Z,9.10
2022-11-22T19:31:27.847Z,9.20
2022-11-22T19:33:55.038Z,9.30
2022-11-22T19:36:29.160Z,9.30
2022-11-22T19:38:59.813Z,9.30
2022-11-22T19:41:27.193Z,9.30
2022-11-22T19:43:55.829Z,9.30
2022-11-22T19:46:23.973Z,9.20
2022-11-22T19:48:52.426Z,9.10
2022-11-22T19:51:19.963Z,9.00
2022-11-22T19:53:47.623Z,8.80
2022-11-22T19:56:17.782Z,8.80
2022-11-22T19:58:52.219Z,8.80
2022-11-22T20:01:20.518Z,8.80
2022-11-22T20:03:52.219Z,8.80
2022-11-22T20:06:19.780Z,8.80
2022-11-22T20:08:47.048Z,8.80
2022-11-22T20:11:16.005Z,8.80
2022-11-22T20:13:45.703Z,8.80
2022-11-22T20:16:16.457Z,8.90
2022-11-22T20:18:43.849Z,8.90
2022-11-22T20:21:11.128Z,8.90
2022-11-22T20:23:38.582Z,9.00
2022-11-22T20:26:09.841Z,9.00
2022-11-22T20:28:41.474Z,9.00
2022-11-22T20:31:19.323Z,9.00
2022-11-22T20:33:50.765Z,8.90
2022-11-22T20:36:26.558Z,9.00
2022-11-22T20:38:54.497Z,9.00
2022-11-22T20:41:24.246Z,9.00
2022-11-22T20:43:51.413Z,8.90
2022-11-22T20:46:21.207Z,9.00
2022-11-22T20:48:49.249Z,9.10
2022-11-22T20:51:18.974Z,9.00
2022-11-22T20:53:46.056Z,8.90
2022-11-22T20:56:14.072Z,8.90
2022-11-22T20:58:41.588Z,8.90
2022-11-22T21:01:15.154Z,8.90
2022-11-22T21:03:42.813Z,8.80
2022-11-22T21:06:11.497Z,8.70
2022-11-22T21:08:38.698Z,8.80
2022-11-22T21:11:14.865Z,9.00
2022-11-22T21:13:43.129Z,9.10
2022-11-22T21:16:23.291Z,9.00
2022-11-22T21:19:01.583Z,9.00
2022-11-22T21:21:29.753Z,8.90
2022-11-22T21:23:59.580Z,8.90
2022-11-22T21:26:26.866Z,8.80
2022-11-22T21:28:54.099Z,8.80
2022-11-22T21:31:22.456Z,8.70
2022-11-22T21:33:49.516Z,8.80
2022-11-22T21:36:16.404Z,8.80
2022-11-22T21:38:43.366Z,8.70
2022-11-22T21:41:38.758Z,8.70
2022-11-22T21:44:01.307Z,8.70
2022-11-22T21:46:28.080Z,8.50
2022-11-22T21:48:55.965Z,8.50
2022-11-22T21:51:25.847Z,8.40
2022-11-22T21:53:59.707Z,8.30
2022-11-22T21:56:27.019Z,8.30
2022-11-22T21:58:54.397Z,8.30
2022-11-22T22:01:21.801Z,8.30
2022-11-22T22:03:48.787Z,8.20
2022-11-22T22:06:15.622Z,8.20
2022-11-22T22:08:42.444Z,8.20
2022-11-22T22:11:09.423Z,8.10
2022-11-22T22:13:36.742Z,8.10
2022-11-22T22:16:12.882Z,8.10
2022-11-22T22:18:39.876Z,8.10
2022-11-22T22:21:09.020Z,8.10
2022-11-22T22:23:37.459Z,8.00
2022-11-22T22:26:10.011Z,8.00
2022-11-22T22:28:38.182Z,7.90
2022-11-22T22:31:13.645Z,7.90
2022-11-22T22:33:41.802Z,7.80
2022-11-22T22:36:10.803Z,7.80
2022-11-22T22:38:38.618Z,7.70
2022-11-22T22:41:07.285Z,7.70
2022-11-22T22:43:36.601Z,7.60
2022-11-22T22:46:09.874Z,7.60
2022-11-22T22:48:36.777Z,7.50
2022-11-22T22:51:18.241Z,7.80
2022-11-22T22:53:46.769Z,7.50
2022-11-22T22:56:14.948Z,7.50
2022-11-22T22:58:42.161Z,7.70
2022-11-22T23:01:21.669Z,7.60
2022-11-22T23:03:49.760Z,7.60
2022-11-22T23:06:17.541Z,7.60
2022-11-22T23:08:46.757Z,7.70
2022-11-22T23:11:14.190Z,7.70
2022-11-22T23:13:42.804Z,7.70
2022-11-22T23:16:13.128Z,7.70
2022-11-22T23:18:42.420Z,7.70
2022-11-22T23:21:13.679Z,7.70
2022-11-22T23:23:40.553Z,7.70
2022-11-22T23:26:10.646Z,7.90
2022-11-22T23:28:37.918Z,8.00
2022-11-22T23:31:13.783Z,8.10
2022-11-22T23:33:42.958Z,8.10
2022-11-22T23:36:19.398Z,8.20
2022-11-22T23:38:47.731Z,8.30
2022-11-22T23:41:16.919Z,8.30
2022-11-22T23:43:44.128Z,8.30
2022-11-22T23:46:18.143Z,8.20
2022-11-22T23:48:53.671Z,8.30
2022-11-22T23:51:21.345Z,8.20
2022-11-22T23:53:48.131Z,8.20
2022-11-22T23:56:21.540Z,8.20
2022-11-22T23:58:49.041Z,8.30
